sensor_id;sensor_type;location;lat;lon;timestamp;P1;durP1;ratioP1;P2;durP2;ratioP2
32393;SDS011;18853;45.426;9.206;2023-07-29T00:01:33;5.70;;;3.55;;
32393;SDS011;18853;45.426;9.206;2023-07-29T00:04:00;7.32;;;3.55;;
32393;SDS011;18853;45.426;9.206;2023-07-29T00:06:26;7.00;;;3.65;;
32393;SDS011;18853;45.426;9.206;2023-07-29T00:08:52;7.03;;;3.60;;
32393;SDS011;18853;45.426;9.206;2023-07-29T00:11:17;5.03;;;3.42;;
32393;SDS011;18853;45.426;9.206;2023-07-29T00:13:43;7.05;;;3.85;;
32393;SDS011;18853;45.426;9.206;2023-07-29T00:16:09;7.50;;;3.65;;
32393;SDS011;18853;45.426;9.206;2023-07-29T00:18:35;7.28;;;3.78;;
32393;SDS011;18853;45.426;9.206;2023-07-29T00:21:01;6.70;;;3.75;;
32393;SDS011;18853;45.426;9.206;2023-07-29T00:23:27;5.63;;;3.53;;
32393;SDS011;18853;45.426;9.206;2023-07-29T00:25:54;7.43;;;4.10;;
32393;SDS011;18853;45.426;9.206;2023-07-29T00:28:19;5.93;;;3.75;;
32393;SDS011;18853;45.426;9.206;2023-07-29T00:30:45;5.43;;;3.22;;
32393;SDS011;18853;45.426;9.206;2023-07-29T00:33:10;6.57;;;3.75;;
32393;SDS011;18853;45.426;9.206;2023-07-29T00:35:36;8.95;;;3.88;;
32393;SDS011;18853;45.426;9.206;2023-07-29T00:38:02;6.55;;;3.40;;
32393;SDS011;18853;45.426;9.206;2023-07-29T00:40:28;7.50;;;3.47;;
32393;SDS011;18853;45.426;9.206;2023-07-29T00:42:55;7.65;;;3.47;;
32393;SDS011;18853;45.426;9.206;2023-07-29T00:45:20;6.78;;;3.50;;
32393;SDS011;18853;45.426;9.206;2023-07-29T00:47:46;7.07;;;3.42;;
32393;SDS011;18853;45.426;9.206;2023-07-29T00:50:13;4.20;;;3.13;;
32393;SDS011;18853;45.426;9.206;2023-07-29T00:52:40;5.10;;;3.40;;
32393;SDS011;18853;45.426;9.206;2023-07-29T00:55:06;6.82;;;3.33;;
32393;SDS011;18853;45.426;9.206;2023-07-29T00:57:32;6.47;;;3.60;;
32393;SDS011;18853;45.426;9.206;2023-07-29T00:59:59;8.50;;;3.95;;
32393;SDS011;18853;45.426;9.206;2023-07-29T01:02:25;7.18;;;3.53;;
32393;SDS011;18853;45.426;9.206;2023-07-29T01:04:55;8.85;;;3.55;;
32393;SDS011;18853;45.426;9.206;2023-07-29T01:13:12;8.80;;;4.10;;
32393;SDS011;18853;45.426;9.206;2023-07-29T01:18:26;6.43;;;3.42;;
32393;SDS011;18853;45.426;9.206;2023-07-29T01:20:58;5.13;;;3.40;;
32393;SDS011;18853;45.426;9.206;2023-07-29T01:23:31;4.82;;;2.88;;
32393;SDS011;18853;45.426;9.206;2023-07-29T01:25:59;6.50;;;3.60;;
32393;SDS011;18853;45.426;9.206;2023-07-29T01:28:25;7.82;;;3.45;;
32393;SDS011;18853;45.426;9.206;2023-07-29T01:30:52;6.90;;;3.13;;
32393;SDS011;18853;45.426;9.206;2023-07-29T01:33:27;9.18;;;3.47;;
32393;SDS011;18853;45.426;9.206;2023-07-29T01:36:42;7.18;;;3.50;;
32393;SDS011;18853;45.426;9.206;2023-07-29T01:38:52;6.75;;;3.70;;
32393;SDS011;18853;45.426;9.206;2023-07-29T01:41:19;6.57;;;3.03;;
32393;SDS011;18853;45.426;9.206;2023-07-29T01:43:46;5.40;;;3.38;;
32393;SDS011;18853;45.426;9.206;2023-07-29T01:46:15;5.20;;;3.17;;
32393;SDS011;18853;45.426;9.206;2023-07-29T01:48:41;5.10;;;3.20;;
32393;SDS011;18853;45.426;9.206;2023-07-29T01:51:07;8.95;;;3.70;;
32393;SDS011;18853;45.426;9.206;2023-07-29T01:53:34;8.75;;;3.63;;
32393;SDS011;18853;45.426;9.206;2023-07-29T01:56:00;6.22;;;3.30;;
32393;SDS011;18853;45.426;9.206;2023-07-29T01:58:26;7.60;;;3.45;;
32393;SDS011;18853;45.426;9.206;2023-07-29T02:00:52;7.80;;;3.25;;
32393;SDS011;18853;45.426;9.206;2023-07-29T02:03:18;6.05;;;3.17;;
32393;SDS011;18853;45.426;9.206;2023-07-29T02:05:43;5.20;;;3.10;;
32393;SDS011;18853;45.426;9.206;2023-07-29T02:08:10;6.32;;;3.50;;
32393;SDS011;18853;45.426;9.206;2023-07-29T02:10:36;6.13;;;3.22;;
32393;SDS011;18853;45.426;9.206;2023-07-29T02:13:02;5.10;;;3.20;;
32393;SDS011;18853;45.426;9.206;2023-07-29T02:15:28;6.32;;;3.10;;
32393;SDS011;18853;45.426;9.206;2023-07-29T02:17:54;6.60;;;3.25;;
32393;SDS011;18853;45.426;9.206;2023-07-29T02:20:20;5.93;;;3.00;;
32393;SDS011;18853;45.426;9.206;2023-07-29T02:22:45;6.40;;;3.70;;
32393;SDS011;18853;45.426;9.206;2023-07-29T02:25:12;7.65;;;3.65;;
32393;SDS011;18853;45.426;9.206;2023-07-29T02:27:38;5.43;;;3.15;;
32393;SDS011;18853;45.426;9.206;2023-07-29T02:30:03;6.78;;;3.35;;
32393;SDS011;18853;45.426;9.206;2023-07-29T02:32:30;6.38;;;3.30;;
32393;SDS011;18853;45.426;9.206;2023-07-29T02:34:55;5.03;;;3.45;;
32393;SDS011;18853;45.426;9.206;2023-07-29T02:37:21;5.30;;;3.47;;
32393;SDS011;18853;45.426;9.206;2023-07-29T02:39:46;6.03;;;3.10;;
32393;SDS011;18853;45.426;9.206;2023-07-29T02:42:12;6.15;;;3.33;;
32393;SDS011;18853;45.426;9.206;2023-07-29T02:44:40;4.18;;;3.10;;
32393;SDS011;18853;45.426;9.206;2023-07-29T02:47:07;5.68;;;3.30;;
32393;SDS011;18853;45.426;9.206;2023-07-29T02:49:32;6.03;;;3.50;;
32393;SDS011;18853;45.426;9.206;2023-07-29T02:51:58;5.72;;;3.05;;
32393;SDS011;18853;45.426;9.206;2023-07-29T02:54:24;6.35;;;3.22;;
32393;SDS011;18853;45.426;9.206;2023-07-29T02:56:50;5.15;;;2.95;;
32393;SDS011;18853;45.426;9.206;2023-07-29T02:59:15;5.45;;;3.20;;
32393;SDS011;18853;45.426;9.206;2023-07-29T03:01:41;5.90;;;3.35;;
32393;SDS011;18853;45.426;9.206;2023-07-29T03:04:07;6.32;;;3.35;;
32393;SDS011;18853;45.426;9.206;2023-07-29T03:06:33;6.35;;;2.65;;
32393;SDS011;18853;45.426;9.206;2023-07-29T03:08:59;7.10;;;3.30;;
32393;SDS011;18853;45.426;9.206;2023-07-29T03:11:24;4.22;;;3.00;;
32393;SDS011;18853;45.426;9.206;2023-07-29T03:13:50;11.07;;;3.55;;
32393;SDS011;18853;45.426;9.206;2023-07-29T03:16:16;6.65;;;3.10;;
32393;SDS011;18853;45.426;9.206;2023-07-29T03:18:43;6.38;;;3.28;;
32393;SDS011;18853;45.426;9.206;2023-07-29T03:21:09;5.95;;;3.30;;
32393;SDS011;18853;45.426;9.206;2023-07-29T03:23:35;6.18;;;3.28;;
32393;SDS011;18853;45.426;9.206;2023-07-29T03:26:03;7.20;;;3.50;;
32393;SDS011;18853;45.426;9.206;2023-07-29T03:28:35;5.10;;;2.78;;
32393;SDS011;18853;45.426;9.206;2023-07-29T03:31:02;6.40;;;3.20;;
32393;SDS011;18853;45.426;9.206;2023-07-29T03:33:28;7.38;;;3.20;;
32393;SDS011;18853;45.426;9.206;2023-07-29T03:35:54;5.18;;;2.97;;
32393;SDS011;18853;45.426;9.206;2023-07-29T03:38:19;6.90;;;3.25;;
32393;SDS011;18853;45.426;9.206;2023-07-29T03:40:45;6.38;;;3.55;;
32393;SDS011;18853;45.426;9.206;2023-07-29T03:43:11;5.22;;;3.10;;
32393;SDS011;18853;45.426;9.206;2023-07-29T03:45:37;4.88;;;2.80;;
32393;SDS011;18853;45.426;9.206;2023-07-29T03:48:03;7.68;;;3.28;;
32393;SDS011;18853;45.426;9.206;2023-07-29T03:50:29;6.32;;;3.38;;
32393;SDS011;18853;45.426;9.206;2023-07-29T03:52:56;6.43;;;3.05;;
32393;SDS011;18853;45.426;9.206;2023-07-29T03:55:22;6.55;;;3.50;;
32393;SDS011;18853;45.426;9.206;2023-07-29T03:57:48;5.47;;;3.15;;
32393;SDS011;18853;45.426;9.206;2023-07-29T04:00:14;6.18;;;3.50;;
32393;SDS011;18853;45.426;9.206;2023-07-29T04:02:40;7.68;;;3.40;;
32393;SDS011;18853;45.426;9.206;2023-07-29T04:05:07;6.45;;;3.65;;
32393;SDS011;18853;45.426;9.206;2023-07-29T04:07:36;6.45;;;3.20;;
32393;SDS011;18853;45.426;9.206;2023-07-29T04:10:02;8.68;;;3.72;;
32393;SDS011;18853;45.426;9.206;2023-07-29T04:12:29;7.75;;;3.53;;
32393;SDS011;18853;45.426;9.206;2023-07-29T04:14:55;5.95;;;3.42;;
32393;SDS011;18853;45.426;9.206;2023-07-29T04:17:21;6.53;;;3.80;;
32393;SDS011;18853;45.426;9.206;2023-07-29T04:19:47;5.32;;;3.67;;
32393;SDS011;18853;45.426;9.206;2023-07-29T04:22:12;7.93;;;4.30;;
32393;SDS011;18853;45.426;9.206;2023-07-29T04:24:39;7.05;;;3.47;;
32393;SDS011;18853;45.426;9.206;2023-07-29T04:27:04;6.97;;;3.40;;
32393;SDS011;18853;45.426;9.206;2023-07-29T04:29:30;10.45;;;3.85;;
32393;SDS011;18853;45.426;9.206;2023-07-29T04:31:56;7.10;;;3.75;;
32393;SDS011;18853;45.426;9.206;2023-07-29T04:34:22;7.28;;;3.53;;
32393;SDS011;18853;45.426;9.206;2023-07-29T04:36:47;6.95;;;3.72;;
32393;SDS011;18853;45.426;9.206;2023-07-29T04:39:13;5.88;;;3.60;;
32393;SDS011;18853;45.426;9.206;2023-07-29T04:41:39;5.53;;;3.10;;
32393;SDS011;18853;45.426;9.206;2023-07-29T04:44:05;6.60;;;3.20;;
32393;SDS011;18853;45.426;9.206;2023-07-29T04:46:32;10.88;;;3.83;;
32393;SDS011;18853;45.426;9.206;2023-07-29T04:48:58;7.45;;;3.70;;
32393;SDS011;18853;45.426;9.206;2023-07-29T04:51:23;7.22;;;3.08;;
32393;SDS011;18853;45.426;9.206;2023-07-29T04:53:49;6.95;;;3.60;;
32393;SDS011;18853;45.426;9.206;2023-07-29T04:56:15;7.45;;;3.75;;
32393;SDS011;18853;45.426;9.206;2023-07-29T04:58:41;8.52;;;3.80;;
32393;SDS011;18853;45.426;9.206;2023-07-29T05:01:07;7.55;;;3.80;;
32393;SDS011;18853;45.426;9.206;2023-07-29T05:03:32;9.18;;;4.45;;
32393;SDS011;18853;45.426;9.206;2023-07-29T05:05:58;6.72;;;4.03;;
32393;SDS011;18853;45.426;9.206;2023-07-29T05:08:27;7.45;;;3.90;;
32393;SDS011;18853;45.426;9.206;2023-07-29T05:10:53;7.95;;;3.92;;
32393;SDS011;18853;45.426;9.206;2023-07-29T05:13:19;6.28;;;4.07;;
32393;SDS011;18853;45.426;9.206;2023-07-29T05:15:46;6.20;;;4.30;;
32393;SDS011;18853;45.426;9.206;2023-07-29T05:18:13;6.85;;;4.10;;
32393;SDS011;18853;45.426;9.206;2023-07-29T05:20:39;6.07;;;4.18;;
32393;SDS011;18853;45.426;9.206;2023-07-29T05:23:05;6.68;;;4.30;;
32393;SDS011;18853;45.426;9.206;2023-07-29T05:25:31;10.60;;;5.32;;
32393;SDS011;18853;45.426;9.206;2023-07-29T05:27:56;10.88;;;4.38;;
32393;SDS011;18853;45.426;9.206;2023-07-29T05:30:22;11.65;;;5.35;;
32393;SDS011;18853;45.426;9.206;2023-07-29T05:32:48;8.77;;;5.30;;
32393;SDS011;18853;45.426;9.206;2023-07-29T05:35:14;9.82;;;5.57;;
32393;SDS011;18853;45.426;9.206;2023-07-29T05:37:39;8.77;;;5.45;;
32393;SDS011;18853;45.426;9.206;2023-07-29T05:40:06;9.55;;;5.35;;
32393;SDS011;18853;45.426;9.206;2023-07-29T05:42:33;9.07;;;6.43;;
32393;SDS011;18853;45.426;9.206;2023-07-29T05:44:59;8.18;;;5.72;;
32393;SDS011;18853;45.426;9.206;2023-07-29T05:47:25;9.55;;;5.97;;
32393;SDS011;18853;45.426;9.206;2023-07-29T05:49:51;7.30;;;5.28;;
32393;SDS011;18853;45.426;9.206;2023-07-29T05:52:17;8.77;;;5.63;;
32393;SDS011;18853;45.426;9.206;2023-07-29T05:54:43;7.28;;;5.72;;
32393;SDS011;18853;45.426;9.206;2023-07-29T05:57:10;7.80;;;5.32;;
32393;SDS011;18853;45.426;9.206;2023-07-29T05:59:36;7.82;;;5.40;;
32393;SDS011;18853;45.426;9.206;2023-07-29T06:02:02;8.25;;;5.85;;
32393;SDS011;18853;45.426;9.206;2023-07-29T06:04:29;7.35;;;6.00;;
32393;SDS011;18853;45.426;9.206;2023-07-29T06:06:54;10.85;;;6.18;;
32393;SDS011;18853;45.426;9.206;2023-07-29T06:09:21;8.77;;;5.60;;
32393;SDS011;18853;45.426;9.206;2023-07-29T06:11:47;11.30;;;6.93;;
32393;SDS011;18853;45.426;9.206;2023-07-29T06:14:12;7.95;;;5.10;;
32393;SDS011;18853;45.426;9.206;2023-07-29T06:16:38;9.77;;;4.60;;
32393;SDS011;18853;45.426;9.206;2023-07-29T06:19:04;7.78;;;5.35;;
32393;SDS011;18853;45.426;9.206;2023-07-29T06:21:30;7.90;;;5.20;;
32393;SDS011;18853;45.426;9.206;2023-07-29T06:23:55;9.27;;;5.78;;
32393;SDS011;18853;45.426;9.206;2023-07-29T06:26:21;11.02;;;5.47;;
32393;SDS011;18853;45.426;9.206;2023-07-29T06:28:47;8.25;;;4.80;;
32393;SDS011;18853;45.426;9.206;2023-07-29T06:31:13;8.98;;;4.60;;
32393;SDS011;18853;45.426;9.206;2023-07-29T06:33:38;9.90;;;4.95;;
32393;SDS011;18853;45.426;9.206;2023-07-29T06:36:04;6.45;;;4.70;;
32393;SDS011;18853;45.426;9.206;2023-07-29T06:38:30;7.80;;;4.93;;
32393;SDS011;18853;45.426;9.206;2023-07-29T06:40:56;9.30;;;4.50;;
32393;SDS011;18853;45.426;9.206;2023-07-29T06:43:21;9.27;;;4.80;;
32393;SDS011;18853;45.426;9.206;2023-07-29T06:45:47;7.05;;;4.07;;
32393;SDS011;18853;45.426;9.206;2023-07-29T06:48:13;9.05;;;4.30;;
32393;SDS011;18853;45.426;9.206;2023-07-29T06:50:38;7.38;;;5.05;;
32393;SDS011;18853;45.426;9.206;2023-07-29T06:53:05;6.28;;;3.95;;
32393;SDS011;18853;45.426;9.206;2023-07-29T06:55:31;7.50;;;4.20;;
32393;SDS011;18853;45.426;9.206;2023-07-29T06:57:57;7.00;;;4.47;;
32393;SDS011;18853;45.426;9.206;2023-07-29T07:00:22;6.65;;;3.83;;
32393;SDS011;18853;45.426;9.206;2023-07-29T07:02:48;8.32;;;3.95;;
32393;SDS011;18853;45.426;9.206;2023-07-29T07:05:14;8.02;;;4.65;;
32393;SDS011;18853;45.426;9.206;2023-07-29T07:07:40;7.07;;;3.97;;
32393;SDS011;18853;45.426;9.206;2023-07-29T07:10:05;5.72;;;3.25;;
32393;SDS011;18853;45.426;9.206;2023-07-29T07:12:31;6.70;;;3.70;;
32393;SDS011;18853;45.426;9.206;2023-07-29T07:14:57;8.82;;;3.90;;
32393;SDS011;18853;45.426;9.206;2023-07-29T07:17:23;8.07;;;3.95;;
32393;SDS011;18853;45.426;9.206;2023-07-29T07:19:48;9.40;;;3.72;;
32393;SDS011;18853;45.426;9.206;2023-07-29T07:22:15;8.60;;;4.07;;
32393;SDS011;18853;45.426;9.206;2023-07-29T07:24:41;6.30;;;3.72;;
32393;SDS011;18853;45.426;9.206;2023-07-29T07:27:07;5.93;;;3.65;;
32393;SDS011;18853;45.426;9.206;2023-07-29T07:29:33;6.10;;;3.83;;
32393;SDS011;18853;45.426;9.206;2023-07-29T07:31:58;9.43;;;3.83;;
32393;SDS011;18853;45.426;9.206;2023-07-29T07:34:24;7.72;;;3.70;;
32393;SDS011;18853;45.426;9.206;2023-07-29T07:36:50;7.63;;;3.65;;
32393;SDS011;18853;45.426;9.206;2023-07-29T07:39:16;6.45;;;3.67;;
32393;SDS011;18853;45.426;9.206;2023-07-29T07:41:42;8.43;;;3.60;;
32393;SDS011;18853;45.426;9.206;2023-07-29T07:44:08;7.55;;;4.07;;
32393;SDS011;18853;45.426;9.206;2023-07-29T07:46:34;6.40;;;3.35;;
32393;SDS011;18853;45.426;9.206;2023-07-29T07:48:59;7.05;;;3.90;;
32393;SDS011;18853;45.426;9.206;2023-07-29T07:51:25;7.25;;;3.25;;
32393;SDS011;18853;45.426;9.206;2023-07-29T07:53:51;6.97;;;3.65;;
32393;SDS011;18853;45.426;9.206;2023-07-29T07:56:16;8.35;;;4.05;;
32393;SDS011;18853;45.426;9.206;2023-07-29T07:58:42;7.60;;;3.60;;
32393;SDS011;18853;45.426;9.206;2023-07-29T08:01:08;9.07;;;3.60;;
32393;SDS011;18853;45.426;9.206;2023-07-29T08:03:35;7.00;;;3.47;;
32393;SDS011;18853;45.426;9.206;2023-07-29T08:06:01;8.82;;;3.22;;
32393;SDS011;18853;45.426;9.206;2023-07-29T08:08:27;9.05;;;3.63;;
32393;SDS011;18853;45.426;9.206;2023-07-29T08:10:53;8.55;;;3.97;;
32393;SDS011;18853;45.426;9.206;2023-07-29T08:13:20;8.23;;;4.03;;
32393;SDS011;18853;45.426;9.206;2023-07-29T08:15:47;6.88;;;3.50;;
32393;SDS011;18853;45.426;9.206;2023-07-29T08:18:14;7.72;;;3.50;;
32393;SDS011;18853;45.426;9.206;2023-07-29T08:20:40;7.38;;;3.45;;
32393;SDS011;18853;45.426;9.206;2023-07-29T08:23:05;8.32;;;3.55;;
32393;SDS011;18853;45.426;9.206;2023-07-29T08:25:31;6.38;;;3.17;;
32393;SDS011;18853;45.426;9.206;2023-07-29T08:27:57;6.30;;;3.30;;
32393;SDS011;18853;45.426;9.206;2023-07-29T08:30:22;8.93;;;3.55;;
32393;SDS011;18853;45.426;9.206;2023-07-29T08:32:48;6.88;;;3.70;;
32393;SDS011;18853;45.426;9.206;2023-07-29T08:35:14;8.30;;;3.15;;
32393;SDS011;18853;45.426;9.206;2023-07-29T08:37:39;7.10;;;3.47;;
32393;SDS011;18853;45.426;9.206;2023-07-29T08:40:05;8.57;;;3.58;;
32393;SDS011;18853;45.426;9.206;2023-07-29T08:42:32;4.97;;;3.25;;
32393;SDS011;18853;45.426;9.206;2023-07-29T08:45:06;5.18;;;3.25;;
32393;SDS011;18853;45.426;9.206;2023-07-29T08:47:33;6.68;;;3.95;;
32393;SDS011;18853;45.426;9.206;2023-07-29T08:49:59;5.80;;;3.70;;
32393;SDS011;18853;45.426;9.206;2023-07-29T08:52:26;9.70;;;3.78;;
32393;SDS011;18853;45.426;9.206;2023-07-29T08:54:52;7.05;;;3.80;;
32393;SDS011;18853;45.426;9.206;2023-07-29T08:57:18;8.00;;;3.80;;
32393;SDS011;18853;45.426;9.206;2023-07-29T08:59:45;7.00;;;3.72;;
32393;SDS011;18853;45.426;9.206;2023-07-29T09:02:11;8.38;;;3.85;;
32393;SDS011;18853;45.426;9.206;2023-07-29T09:04:38;7.45;;;3.50;;
32393;SDS011;18853;45.426;9.206;2023-07-29T09:07:04;7.35;;;3.92;;
32393;SDS011;18853;45.426;9.206;2023-07-29T09:09:32;8.85;;;3.60;;
32393;SDS011;18853;45.426;9.206;2023-07-29T09:11:57;7.22;;;3.50;;
32393;SDS011;18853;45.426;9.206;2023-07-29T09:14:24;7.18;;;3.20;;
32393;SDS011;18853;45.426;9.206;2023-07-29T09:16:49;5.82;;;3.30;;
32393;SDS011;18853;45.426;9.206;2023-07-29T09:19:16;5.05;;;2.90;;
32393;SDS011;18853;45.426;9.206;2023-07-29T09:21:42;7.80;;;3.53;;
32393;SDS011;18853;45.426;9.206;2023-07-29T09:24:08;6.35;;;3.47;;
32393;SDS011;18853;45.426;9.206;2023-07-29T09:26:34;6.95;;;3.67;;
32393;SDS011;18853;45.426;9.206;2023-07-29T09:29:00;5.97;;;3.10;;
32393;SDS011;18853;45.426;9.206;2023-07-29T09:31:26;5.22;;;3.30;;
32393;SDS011;18853;45.426;9.206;2023-07-29T09:34:00;6.78;;;3.15;;
32393;SDS011;18853;45.426;9.206;2023-07-29T09:36:26;5.43;;;2.95;;
32393;SDS011;18853;45.426;9.206;2023-07-29T09:38:53;6.90;;;3.28;;
32393;SDS011;18853;45.426;9.206;2023-07-29T09:41:21;5.55;;;2.97;;
32393;SDS011;18853;45.426;9.206;2023-07-29T09:46:34;6.45;;;3.55;;
32393;SDS011;18853;45.426;9.206;2023-07-29T09:49:04;6.60;;;3.63;;
32393;SDS011;18853;45.426;9.206;2023-07-29T09:51:32;6.45;;;3.85;;
32393;SDS011;18853;45.426;9.206;2023-07-29T09:54:03;9.80;;;4.00;;
32393;SDS011;18853;45.426;9.206;2023-07-29T09:56:29;5.30;;;3.13;;
32393;SDS011;18853;45.426;9.206;2023-07-29T09:58:55;5.55;;;3.70;;
32393;SDS011;18853;45.426;9.206;2023-07-29T10:01:22;8.05;;;3.67;;
32393;SDS011;18853;45.426;9.206;2023-07-29T10:03:48;7.30;;;3.47;;
32393;SDS011;18853;45.426;9.206;2023-07-29T10:06:14;6.50;;;3.30;;
32393;SDS011;18853;45.426;9.206;2023-07-29T10:08:42;6.90;;;3.40;;
32393;SDS011;18853;45.426;9.206;2023-07-29T10:11:09;6.57;;;3.72;;
32393;SDS011;18853;45.426;9.206;2023-07-29T10:13:36;7.32;;;3.42;;
32393;SDS011;18853;45.426;9.206;2023-07-29T10:16:03;5.00;;;2.97;;
32393;SDS011;18853;45.426;9.206;2023-07-29T10:18:30;7.28;;;3.63;;
32393;SDS011;18853;45.426;9.206;2023-07-29T10:20:57;7.18;;;3.47;;
32393;SDS011;18853;45.426;9.206;2023-07-29T10:23:25;6.68;;;3.70;;
32393;SDS011;18853;45.426;9.206;2023-07-29T10:25:57;7.28;;;3.30;;
32393;SDS011;18853;45.426;9.206;2023-07-29T10:28:30;7.25;;;3.20;;
32393;SDS011;18853;45.426;9.206;2023-07-29T10:30:57;8.15;;;3.53;;
32393;SDS011;18853;45.426;9.206;2023-07-29T10:33:24;6.13;;;3.10;;
32393;SDS011;18853;45.426;9.206;2023-07-29T10:35:50;9.07;;;3.58;;
32393;SDS011;18853;45.426;9.206;2023-07-29T10:38:18;8.85;;;3.28;;
32393;SDS011;18853;45.426;9.206;2023-07-29T10:40:47;4.60;;;3.33;;
32393;SDS011;18853;45.426;9.206;2023-07-29T10:43:27;7.43;;;3.23;;
32393;SDS011;18853;45.426;9.206;2023-07-29T10:45:57;8.40;;;3.50;;
32393;SDS011;18853;45.426;9.206;2023-07-29T10:48:44;6.32;;;3.50;;
32393;SDS011;18853;45.426;9.206;2023-07-29T10:51:35;5.15;;;3.15;;
32393;SDS011;18853;45.426;9.206;2023-07-29T10:56:30;6.30;;;3.50;;
32393;SDS011;18853;45.426;9.206;2023-07-29T10:58:58;6.85;;;3.40;;
32393;SDS011;18853;45.426;9.206;2023-07-29T11:01:51;7.60;;;3.58;;
32393;SDS011;18853;45.426;9.206;2023-07-29T11:17:37;7.68;;;3.20;;
32393;SDS011;18853;45.426;9.206;2023-07-29T11:20:08;5.35;;;3.35;;
32393;SDS011;18853;45.426;9.206;2023-07-29T11:22:34;5.72;;;3.22;;
32393;SDS011;18853;45.426;9.206;2023-07-29T11:25:01;6.45;;;3.30;;
32393;SDS011;18853;45.426;9.206;2023-07-29T11:27:26;6.68;;;3.40;;
32393;SDS011;18853;45.426;9.206;2023-07-29T11:29:58;7.97;;;3.20;;
32393;SDS011;18853;45.426;9.206;2023-07-29T11:32:25;6.72;;;3.42;;
32393;SDS011;18853;45.426;9.206;2023-07-29T11:34:51;6.10;;;2.88;;
32393;SDS011;18853;45.426;9.206;2023-07-29T11:37:17;10.45;;;4.15;;
32393;SDS011;18853;45.426;9.206;2023-07-29T11:39:44;6.22;;;3.47;;
32393;SDS011;18853;45.426;9.206;2023-07-29T11:42:13;5.40;;;3.28;;
32393;SDS011;18853;45.426;9.206;2023-07-29T11:44:39;6.05;;;3.15;;
32393;SDS011;18853;45.426;9.206;2023-07-29T11:47:06;6.00;;;3.30;;
32393;SDS011;18853;45.426;9.206;2023-07-29T11:49:35;7.57;;;3.22;;
32393;SDS011;18853;45.426;9.206;2023-07-29T11:52:03;5.28;;;3.00;;
32393;SDS011;18853;45.426;9.206;2023-07-29T11:54:31;6.13;;;3.03;;
32393;SDS011;18853;45.426;9.206;2023-07-29T11:56:56;4.53;;;3.05;;
32393;SDS011;18853;45.426;9.206;2023-07-29T11:59:23;5.55;;;3.00;;
32393;SDS011;18853;45.426;9.206;2023-07-29T12:01:48;5.03;;;3.28;;
32393;SDS011;18853;45.426;9.206;2023-07-29T12:04:14;7.13;;;3.03;;
32393;SDS011;18853;45.426;9.206;2023-07-29T12:06:40;6.03;;;3.25;;
32393;SDS011;18853;45.426;9.206;2023-07-29T12:09:07;4.65;;;3.08;;
32393;SDS011;18853;45.426;9.206;2023-07-29T12:11:34;6.60;;;3.22;;
32393;SDS011;18853;45.426;9.206;2023-07-29T12:14:00;4.72;;;2.90;;
32393;SDS011;18853;45.426;9.206;2023-07-29T12:16:26;7.20;;;2.95;;
32393;SDS011;18853;45.426;9.206;2023-07-29T12:18:52;7.13;;;3.60;;
32393;SDS011;18853;45.426;9.206;2023-07-29T12:21:20;5.45;;;3.20;;
32393;SDS011;18853;45.426;9.206;2023-07-29T12:23:46;3.90;;;2.72;;
32393;SDS011;18853;45.426;9.206;2023-07-29T12:26:12;5.20;;;3.30;;
32393;SDS011;18853;45.426;9.206;2023-07-29T12:28:37;4.30;;;3.00;;
32393;SDS011;18853;45.426;9.206;2023-07-29T12:31:06;8.00;;;3.17;;
32393;SDS011;18853;45.426;9.206;2023-07-29T12:33:35;6.18;;;3.10;;
32393;SDS011;18853;45.426;9.206;2023-07-29T12:36:04;6.22;;;3.40;;
32393;SDS011;18853;45.426;9.206;2023-07-29T12:38:30;5.35;;;2.67;;
32393;SDS011;18853;45.426;9.206;2023-07-29T12:40:56;7.40;;;2.90;;
32393;SDS011;18853;45.426;9.206;2023-07-29T12:43:21;5.30;;;2.90;;
32393;SDS011;18853;45.426;9.206;2023-07-29T12:45:50;5.85;;;3.78;;
32393;SDS011;18853;45.426;9.206;2023-07-29T12:48:16;6.38;;;2.80;;
32393;SDS011;18853;45.426;9.206;2023-07-29T12:50:42;4.68;;;2.75;;
32393;SDS011;18853;45.426;9.206;2023-07-29T12:53:08;4.80;;;2.90;;
32393;SDS011;18853;45.426;9.206;2023-07-29T12:55:37;6.70;;;3.10;;
32393;SDS011;18853;45.426;9.206;2023-07-29T12:58:03;5.50;;;3.00;;
32393;SDS011;18853;45.426;9.206;2023-07-29T13:00:29;17.17;;;3.42;;
32393;SDS011;18853;45.426;9.206;2023-07-29T13:02:55;5.38;;;2.83;;
32393;SDS011;18853;45.426;9.206;2023-07-29T13:05:21;4.93;;;2.95;;
32393;SDS011;18853;45.426;9.206;2023-07-29T13:07:47;5.07;;;2.78;;
32393;SDS011;18853;45.426;9.206;2023-07-29T13:10:13;6.07;;;3.50;;
32393;SDS011;18853;45.426;9.206;2023-07-29T13:12:39;4.97;;;3.30;;
32393;SDS011;18853;45.426;9.206;2023-07-29T13:15:06;7.82;;;3.72;;
32393;SDS011;18853;45.426;9.206;2023-07-29T13:17:32;6.32;;;3.00;;
32393;SDS011;18853;45.426;9.206;2023-07-29T13:19:58;6.90;;;3.40;;
32393;SDS011;18853;45.426;9.206;2023-07-29T13:22:24;5.60;;;3.08;;
32393;SDS011;18853;45.426;9.206;2023-07-29T13:24:50;4.25;;;3.10;;
32393;SDS011;18853;45.426;9.206;2023-07-29T13:27:15;6.03;;;3.15;;
32393;SDS011;18853;45.426;9.206;2023-07-29T13:29:41;6.78;;;3.08;;
32393;SDS011;18853;45.426;9.206;2023-07-29T13:32:08;7.15;;;3.05;;
32393;SDS011;18853;45.426;9.206;2023-07-29T13:34:34;4.78;;;3.00;;
32393;SDS011;18853;45.426;9.206;2023-07-29T13:37:00;6.03;;;3.38;;
32393;SDS011;18853;45.426;9.206;2023-07-29T13:39:26;5.13;;;3.28;;
32393;SDS011;18853;45.426;9.206;2023-07-29T13:41:52;5.32;;;3.08;;
32393;SDS011;18853;45.426;9.206;2023-07-29T13:44:18;5.55;;;3.30;;
32393;SDS011;18853;45.426;9.206;2023-07-29T13:46:44;5.32;;;2.83;;
32393;SDS011;18853;45.426;9.206;2023-07-29T13:49:10;6.05;;;3.45;;
32393;SDS011;18853;45.426;9.206;2023-07-29T13:51:36;6.22;;;3.28;;
32393;SDS011;18853;45.426;9.206;2023-07-29T13:54:02;5.90;;;3.35;;
32393;SDS011;18853;45.426;9.206;2023-07-29T13:56:27;8.02;;;3.22;;
32393;SDS011;18853;45.426;9.206;2023-07-29T13:58:53;4.78;;;3.33;;
32393;SDS011;18853;45.426;9.206;2023-07-29T14:01:19;5.88;;;2.97;;
32393;SDS011;18853;45.426;9.206;2023-07-29T14:03:44;4.90;;;2.75;;
32393;SDS011;18853;45.426;9.206;2023-07-29T14:06:10;6.10;;;2.90;;
32393;SDS011;18853;45.426;9.206;2023-07-29T14:08:35;5.45;;;3.50;;
32393;SDS011;18853;45.426;9.206;2023-07-29T14:11:01;6.05;;;3.20;;
32393;SDS011;18853;45.426;9.206;2023-07-29T14:13:27;6.65;;;3.60;;
32393;SDS011;18853;45.426;9.206;2023-07-29T14:15:52;5.78;;;2.88;;
32393;SDS011;18853;45.426;9.206;2023-07-29T14:18:18;4.40;;;3.45;;
32393;SDS011;18853;45.426;9.206;2023-07-29T14:20:44;6.70;;;3.00;;
32393;SDS011;18853;45.426;9.206;2023-07-29T14:23:10;5.88;;;3.28;;
32393;SDS011;18853;45.426;9.206;2023-07-29T14:25:36;5.07;;;3.10;;
32393;SDS011;18853;45.426;9.206;2023-07-29T14:28:01;5.63;;;3.13;;
32393;SDS011;18853;45.426;9.206;2023-07-29T14:30:27;7.03;;;3.42;;
32393;SDS011;18853;45.426;9.206;2023-07-29T14:32:53;4.80;;;3.10;;
32393;SDS011;18853;45.426;9.206;2023-07-29T14:35:18;4.60;;;3.17;;
32393;SDS011;18853;45.426;9.206;2023-07-29T14:37:44;9.13;;;3.33;;
32393;SDS011;18853;45.426;9.206;2023-07-29T14:40:10;5.82;;;3.50;;
32393;SDS011;18853;45.426;9.206;2023-07-29T14:42:35;5.80;;;3.28;;
32393;SDS011;18853;45.426;9.206;2023-07-29T14:45:01;6.13;;;3.40;;
32393;SDS011;18853;45.426;9.206;2023-07-29T14:47:27;4.95;;;2.97;;
32393;SDS011;18853;45.426;9.206;2023-07-29T14:49:52;6.40;;;3.30;;
32393;SDS011;18853;45.426;9.206;2023-07-29T14:52:18;4.60;;;3.25;;
32393;SDS011;18853;45.426;9.206;2023-07-29T14:54:44;8.30;;;3.83;;
32393;SDS011;18853;45.426;9.206;2023-07-29T14:57:09;6.72;;;3.00;;
32393;SDS011;18853;45.426;9.206;2023-07-29T14:59:36;4.88;;;2.63;;
32393;SDS011;18853;45.426;9.206;2023-07-29T15:02:01;7.50;;;2.78;;
32393;SDS011;18853;45.426;9.206;2023-07-29T15:04:27;7.05;;;3.20;;
32393;SDS011;18853;45.426;9.206;2023-07-29T15:06:52;5.88;;;2.97;;
32393;SDS011;18853;45.426;9.206;2023-07-29T15:09:18;5.07;;;2.63;;
32393;SDS011;18853;45.426;9.206;2023-07-29T15:11:44;5.25;;;3.05;;